createdAt,value
2022-12-18T00:01:27.788Z,25.58
2022-12-18T00:03:58.765Z,26.67
2022-12-18T00:06:27.318Z,26.42
2022-12-18T00:08:55.314Z,29.45
2022-12-18T00:11:26.519Z,28.27
2022-12-18T00:13:57.574Z,32.03
2022-12-18T00:16:28.571Z,29.33
2022-12-18T00:18:57.838Z,24.02
2022-12-18T00:21:27.550Z,28.95
2022-12-18T00:24:02.190Z,27.38
2022-12-18T00:26:33.287Z,27.58
2022-12-18T00:29:14.724Z,28.35
2022-12-18T00:31:42.755Z,30.95
2022-12-18T00:34:13.753Z,28.48
2022-12-18T00:36:41.821Z,27.30
2022-12-18T00:39:11.398Z,31.00
2022-12-18T00:44:24.755Z,31.13
2022-12-18T00:46:53.668Z,24.73
2022-12-18T00:49:21.198Z,28.92
2022-12-18T00:51:48.733Z,27.27
2022-12-18T00:54:16.071Z,32.60
2022-12-18T00:56:49.027Z,28.83
2022-12-18T00:59:21.226Z,28.88
2022-12-18T01:01:48.174Z,29.55
2022-12-18T01:04:17.890Z,30.85
2022-12-18T01:09:14.043Z,27.92
2022-12-18T01:11:40.688Z,30.15
2022-12-18T01:14:09.954Z,31.67
2022-12-18T01:16:36.721Z,35.85
2022-12-18T01:19:03.304Z,30.02
2022-12-18T01:21:29.808Z,37.25
2022-12-18T01:23:57.593Z,29.13
2022-12-18T01:26:30.495Z,35.55
2022-12-18T01:28:57.996Z,32.13
2022-12-18T01:31:28.305Z,29.65
2022-12-18T01:33:58.127Z,31.10
2022-12-18T01:36:31.122Z,28.23
2022-12-18T01:38:59.942Z,34.30
2022-12-18T01:41:52.192Z,28.98
2022-12-18T01:44:59.928Z,31.60
2022-12-18T01:47:49.113Z,33.03
2022-12-18T01:50:19.943Z,32.00
2022-12-18T01:52:53.846Z,32.30
2022-12-18T01:55:25.911Z,34.40
2022-12-18T01:57:58.906Z,32.20
2022-12-18T02:00:27.816Z,32.95
2022-12-18T02:02:55.296Z,36.10
2022-12-18T02:05:50.423Z,30.02
2022-12-18T02:08:27.249Z,31.58
2022-12-18T02:11:07.965Z,31.40
2022-12-18T02:13:41.947Z,29.05
2022-12-18T02:16:25.615Z,28.63
2022-12-18T02:18:58.937Z,30.17
2022-12-18T02:21:32.250Z,29.98
2022-12-18T02:24:08.128Z,32.00
2022-12-18T02:26:46.568Z,30.02
2022-12-18T02:29:25.223Z,32.38
2022-12-18T02:32:00.309Z,31.15
2022-12-18T02:34:33.198Z,32.65
2022-12-18T02:37:03.115Z,31.77
2022-12-18T02:39:34.381Z,36.80
2022-12-18T02:42:08.773Z,32.20
2022-12-18T02:44:50.322Z,28.23
2022-12-18T02:47:22.093Z,27.52
2022-12-18T02:50:10.611Z,26.58
2022-12-18T02:52:47.010Z,30.38
2022-12-18T02:55:31.990Z,30.90
2022-12-18T02:58:09.554Z,34.42
2022-12-18T03:00:49.706Z,30.27
2022-12-18T03:03:31.212Z,32.25
2022-12-18T03:06:05.405Z,29.02
2022-12-18T03:08:38.850Z,30.35
2022-12-18T03:11:12.704Z,30.08
2022-12-18T03:13:49.523Z,36.33
2022-12-18T03:16:26.624Z,30.63
2022-12-18T03:19:00.021Z,32.22
2022-12-18T03:21:48.684Z,35.10
2022-12-18T03:24:17.014Z,30.25
2022-12-18T03:26:50.292Z,28.38
2022-12-18T03:29:25.303Z,31.83
2022-12-18T03:32:01.617Z,30.80
2022-12-18T03:34:34.733Z,31.65
2022-12-18T03:37:04.998Z,32.40
2022-12-18T03:39:37.436Z,35.22
2022-12-18T03:42:20.322Z,27.42
2022-12-18T03:45:01.462Z,27.83
2022-12-18T03:47:43.411Z,32.45
2022-12-18T03:50:22.691Z,30.05
2022-12-18T03:53:01.423Z,30.85
2022-12-18T03:55:30.552Z,30.38
2022-12-18T03:57:58.845Z,30.40
2022-12-18T04:00:25.419Z,30.52
2022-12-18T04:02:54.936Z,33.13
2022-12-18T04:07:58.166Z,29.77
2022-12-18T04:10:24.737Z,28.58
2022-12-18T04:12:51.255Z,28.80
2022-12-18T04:15:22.828Z,24.40
2022-12-18T04:17:50.669Z,28.50
2022-12-18T04:20:18.081Z,27.27
2022-12-18T04:22:44.621Z,22.83
2022-12-18T04:25:13.650Z,25.65
2022-12-18T04:27:42.669Z,28.02
2022-12-18T04:30:09.790Z,24.80
2022-12-18T04:32:36.369Z,23.25
2022-12-18T04:35:07.581Z,22.83
2022-12-18T04:37:34.100Z,21.58
2022-12-18T04:40:02.970Z,23.77
2022-12-18T04:42:31.831Z,24.08
2022-12-18T04:44:58.298Z,22.52
2022-12-18T04:47:24.818Z,25.33
2022-12-18T04:49:51.295Z,23.55
2022-12-18T04:52:20.210Z,23.35
2022-12-18T04:54:49.187Z,25.55
2022-12-18T04:57:15.727Z,24.77
2022-12-18T04:59:42.230Z,26.58
2022-12-18T05:02:08.835Z,17.83
2022-12-18T05:04:35.405Z,24.92
2022-12-18T05:07:04.141Z,22.85
2022-12-18T05:09:32.874Z,23.08
2022-12-18T05:12:01.688Z,27.75
2022-12-18T05:14:30.145Z,25.33
2022-12-18T05:17:01.096Z,23.60
2022-12-18T05:19:28.072Z,21.00
2022-12-18T05:21:54.607Z,22.92
2022-12-18T05:24:21.096Z,22.55
2022-12-18T05:26:47.654Z,21.17
2022-12-18T05:29:17.220Z,21.80
2022-12-18T05:34:13.443Z,19.90
2022-12-18T05:36:42.804Z,22.02
2022-12-18T05:39:14.128Z,23.70
2022-12-18T05:41:43.483Z,20.73
2022-12-18T05:44:12.981Z,20.50
2022-12-18T05:46:44.384Z,21.15
2022-12-18T05:49:10.901Z,24.00
2022-12-18T05:51:37.499Z,23.67
2022-12-18T05:54:06.303Z,28.55
2022-12-18T05:56:33.125Z,21.45
2022-12-18T05:59:02.151Z,23.63
2022-12-18T06:01:32.038Z,29.65
2022-12-18T06:03:59.120Z,22.50
2022-12-18T06:06:29.868Z,26.85
2022-12-18T06:08:57.927Z,24.13
2022-12-18T06:11:26.990Z,25.70
2022-12-18T06:14:00.252Z,23.90
2022-12-18T06:16:31.205Z,24.10
2022-12-18T06:19:01.142Z,23.95
2022-12-18T06:21:29.694Z,21.75
2022-12-18T06:23:56.574Z,31.83
2022-12-18T06:26:28.033Z,23.35
2022-12-18T06:28:56.146Z,27.92
2022-12-18T06:31:25.120Z,25.17
2022-12-18T06:33:51.723Z,27.75
2022-12-18T06:36:18.376Z,21.48
2022-12-18T06:38:47.416Z,22.02
2022-12-18T06:41:17.361Z,26.10
2022-12-18T06:43:46.542Z,25.00
2022-12-18T06:46:13.706Z,25.27
2022-12-18T06:48:42.871Z,27.42
2022-12-18T06:51:11.620Z,23.13
2022-12-18T06:53:38.477Z,23.95
2022-12-18T06:56:10.226Z,25.48
2022-12-18T06:58:38.211Z,26.20
2022-12-18T07:01:09.951Z,26.17
2022-12-18T07:03:39.763Z,25.05
2022-12-18T07:06:09.400Z,25.05
2022-12-18T07:08:35.978Z,26.08
2022-12-18T07:11:06.685Z,27.40
2022-12-18T07:13:33.219Z,31.63
2022-12-18T07:16:24.815Z,32.83
2022-12-18T07:18:52.787Z,26.05
2022-12-18T07:21:23.098Z,29.52
2022-12-18T07:23:49.767Z,29.67
2022-12-18T07:26:19.182Z,31.52
2022-12-18T07:28:45.992Z,29.08
2022-12-18T07:31:18.911Z,27.17
2022-12-18T07:33:46.675Z,27.10
2022-12-18T07:36:14.312Z,29.10
2022-12-18T07:38:43.078Z,30.60
2022-12-18T07:41:12.545Z,30.80
2022-12-18T07:46:07.233Z,31.65
2022-12-18T07:48:33.926Z,27.33
2022-12-18T07:51:05.290Z,33.45
2022-12-18T07:53:32.655Z,30.13
2022-12-18T07:58:56.126Z,31.05
2022-12-18T08:01:25.803Z,25.10
2022-12-18T08:03:54.888Z,29.98
2022-12-18T08:06:23.290Z,26.65
2022-12-18T08:08:57.830Z,33.53
2022-12-18T08:11:26.700Z,33.20
2022-12-18T08:13:54.144Z,33.65
2022-12-18T08:16:21.892Z,35.90
2022-12-18T08:18:49.438Z,31.38
2022-12-18T08:21:27.328Z,32.88
2022-12-18T08:23:58.075Z,33.53
2022-12-18T08:26:31.643Z,35.15
2022-12-18T08:29:01.324Z,30.25
2022-12-18T08:31:32.067Z,35.78
2022-12-18T08:33:58.851Z,32.92
2022-12-18T08:36:27.795Z,29.60
2022-12-18T08:38:57.566Z,34.97
2022-12-18T08:41:24.758Z,37.15
2022-12-18T08:44:09.894Z,34.28
2022-12-18T08:46:44.219Z,35.55
2022-12-18T08:49:12.269Z,37.17
2022-12-18T08:51:39.449Z,30.25
2022-12-18T08:54:08.674Z,33.40
2022-12-18T08:56:35.380Z,34.05
2022-12-18T08:59:07.325Z,32.47
2022-12-18T09:01:34.572Z,34.63
2022-12-18T09:04:07.623Z,33.58
2022-12-18T09:06:34.954Z,35.78
2022-12-18T09:09:04.953Z,33.97
2022-12-18T09:11:34.943Z,34.40
2022-12-18T09:14:05.271Z,30.60
2022-12-18T09:16:33.411Z,34.25
2022-12-18T09:19:01.205Z,34.28
2022-12-18T09:21:37.215Z,34.42
2022-12-18T09:24:05.127Z,31.20
2022-12-18T09:26:38.581Z,36.05
2022-12-18T09:29:08.691Z,32.65
2022-12-18T09:31:35.332Z,31.63
2022-12-18T09:34:04.160Z,31.55
2022-12-18T09:36:30.991Z,33.63
2022-12-18T09:38:57.711Z,30.98
2022-12-18T09:41:48.900Z,33.17
2022-12-18T09:44:21.232Z,30.45
2022-12-18T09:47:12.924Z,34.10
2022-12-18T09:52:34.411Z,37.70
2022-12-18T09:55:24.866Z,34.83
2022-12-18T09:58:00.137Z,34.15
2022-12-18T10:00:29.282Z,34.65
2022-12-18T10:03:10.030Z,37.90
2022-12-18T10:06:01.866Z,38.97
2022-12-18T10:08:40.788Z,31.50
2022-12-18T10:11:19.432Z,36.78
2022-12-18T10:13:54.665Z,37.95
2022-12-18T10:16:45.002Z,32.10
2022-12-18T10:19:20.301Z,36.08
2022-12-18T10:22:13.381Z,33.95
2022-12-18T10:24:46.450Z,33.55
2022-12-18T10:27:22.544Z,32.70
2022-12-18T10:29:51.583Z,33.58
2022-12-18T10:32:29.558Z,31.85
2022-12-18T10:35:00.801Z,35.45
2022-12-18T10:37:31.031Z,32.05
2022-12-18T10:40:21.900Z,34.35
2022-12-18T10:43:09.194Z,33.05
2022-12-18T10:45:36.087Z,31.10
2022-12-18T10:48:07.364Z,33.17
2022-12-18T10:51:09.214Z,34.30
2022-12-18T10:53:30.721Z,31.30
2022-12-18T10:55:59.936Z,30.00
2022-12-18T10:58:35.912Z,35.42
2022-12-18T11:01:07.543Z,33.03
2022-12-18T11:03:57.707Z,33.40
2022-12-18T11:06:28.962Z,34.10
2022-12-18T11:09:12.212Z,33.80
2022-12-18T11:11:42.224Z,33.08
2022-12-18T11:14:25.037Z,33.90
2022-12-18T11:19:45.644Z,32.00
2022-12-18T11:22:27.821Z,37.10
2022-12-18T11:25:30.807Z,31.88
2022-12-18T11:27:52.367Z,30.60
2022-12-18T11:30:30.430Z,34.80
2022-12-18T11:33:02.304Z,35.10
2022-12-18T11:35:36.930Z,38.03
2022-12-18T11:38:25.158Z,35.47
2022-12-18T11:40:54.802Z,39.08
2022-12-18T11:43:32.643Z,34.45
2022-12-18T11:46:12.421Z,37.38
2022-12-18T11:49:07.445Z,32.58
2022-12-18T11:51:50.155Z,34.75
2022-12-18T11:54:17.640Z,37.45
2022-12-18T11:57:05.252Z,35.60
2022-12-18T11:59:37.022Z,35.03
2022-12-18T12:02:45.954Z,34.85
2022-12-18T12:05:15.891Z,34.00
2022-12-18T12:07:48.422Z,36.95
2022-12-18T12:10:27.145Z,33.60
2022-12-18T12:13:14.813Z,32.72
2022-12-18T12:16:05.551Z,35.75
2022-12-18T12:18:43.992Z,32.70
2022-12-18T12:21:22.998Z,28.38
2022-12-18T12:23:52.431Z,34.30
2022-12-18T12:26:42.158Z,34.40
2022-12-18T12:29:30.627Z,27.42
2022-12-18T12:32:12.595Z,27.67
2022-12-18T12:34:45.224Z,26.17
2022-12-18T12:37:37.540Z,21.48
2022-12-18T12:40:41.024Z,27.05
2022-12-18T12:43:19.212Z,22.27
2022-12-18T12:46:08.365Z,26.70
2022-12-18T12:48:50.249Z,21.25
2022-12-18T12:51:19.643Z,23.88
2022-12-18T12:53:49.931Z,20.17
2022-12-18T12:56:19.848Z,25.48
2022-12-18T12:59:25.910Z,31.60
2022-12-18T13:01:55.750Z,33.85
2022-12-18T13:04:31.092Z,39.63
2022-12-18T13:07:00.670Z,36.72
2022-12-18T13:09:35.005Z,43.55
2022-12-18T13:12:30.606Z,36.50
2022-12-18T13:15:23.472Z,36.97
2022-12-18T13:17:50.175Z,42.10
2022-12-18T13:20:17.404Z,42.58
2022-12-18T13:22:48.227Z,40.58
2022-12-18T13:25:36.547Z,39.78
2022-12-18T13:28:09.715Z,50.85
2022-12-18T13:30:36.243Z,47.40
2022-12-18T13:33:15.532Z,44.47
2022-12-18T13:35:49.030Z,43.05
2022-12-18T13:38:24.826Z,47.17
2022-12-18T13:40:51.338Z,41.28
2022-12-18T13:43:21.143Z,47.88
2022-12-18T13:46:00.201Z,44.95
2022-12-18T13:48:28.659Z,44.30
2022-12-18T13:51:08.047Z,49.13
2022-12-18T13:53:40.081Z,47.92
2022-12-18T13:56:11.913Z,46.75
2022-12-18T13:58:38.852Z,48.53
2022-12-18T14:01:06.190Z,45.70
2022-12-18T14:03:33.164Z,51.35
2022-12-18T14:06:13.619Z,45.65
2022-12-18T14:08:45.053Z,43.20
2022-12-18T14:11:23.321Z,44.95
2022-12-18T14:13:53.216Z,40.85
2022-12-18T14:16:23.126Z,44.33
2022-12-18T14:19:05.545Z,41.67
2022-12-18T14:21:38.464Z,39.90
2022-12-18T14:24:19.740Z,41.72
2022-12-18T14:26:48.411Z,38.53
2022-12-18T14:29:25.671Z,42.65
2022-12-18T14:32:18.891Z,41.70
2022-12-18T14:34:56.564Z,41.83
2022-12-18T14:37:30.612Z,37.83
2022-12-18T14:40:10.513Z,44.15
2022-12-18T14:42:40.267Z,44.97
2022-12-18T14:45:43.696Z,45.25
2022-12-18T14:48:22.997Z,50.53
2022-12-18T14:51:04.687Z,48.72
2022-12-18T14:53:34.557Z,49.17
2022-12-18T14:56:02.174Z,43.60
2022-12-18T14:58:33.517Z,42.05
2022-12-18T15:01:02.665Z,48.20
2022-12-18T15:03:29.575Z,40.90
2022-12-18T15:05:58.961Z,43.20
2022-12-18T15:08:35.437Z,42.65
2022-12-18T15:11:02.127Z,43.08
2022-12-18T15:13:29.946Z,43.63
2022-12-18T15:16:03.990Z,41.72
2022-12-18T15:18:42.580Z,45.05
2022-12-18T15:21:14.799Z,44.13
2022-12-18T15:23:47.481Z,46.75
2022-12-18T15:26:17.119Z,45.47
2022-12-18T15:28:52.122Z,49.42
2022-12-18T15:31:18.661Z,43.80
2022-12-18T15:33:53.981Z,49.67
2022-12-18T15:36:27.037Z,42.55
2022-12-18T15:39:00.943Z,48.28
2022-12-18T15:41:35.782Z,43.40
2022-12-18T15:44:03.020Z,47.47
2022-12-18T15:46:33.005Z,50.25
2022-12-18T15:49:03.559Z,45.80
2022-12-18T15:51:37.701Z,43.92
2022-12-18T15:54:07.400Z,43.88
2022-12-18T15:56:54.961Z,51.03
2022-12-18T16:01:52.207Z,48.63
2022-12-18T16:04:24.657Z,50.88
